ESSP/NRK METAR and TAF weather

Enter ICAO airport designator
Station Type Date Time Source
ESSP METAR 2022/12/05 13:50 UTC NOAA

ESSP 051350Z 02003KT 9999 OVC022 M01/M03 Q1026


Station Type Date Time Source
ESSP Decoded METAR 2022/12/05 13:50 UTC NOAA

Norrkoping, Sweden (ESSP) 58-35N 016-09E 0M
Dec 05, 2022 - 08:50 AM EST / 2022.12.05 1350 UTC
Wind: from the NNE (020 degrees) at 3 MPH (3 KT):0
Visibility: greater than 7 mile(s):0
Sky conditions: overcast
Temperature: 30 F (-1 C)
Dew Point: 26 F (-3 C)
Relative Humidity: 86%
Pressure (altimeter): 30.30 in. Hg (1026 hPa)
ob: ESSP 051350Z 02003KT 9999 OVC022 M01/M03 Q1026
cycle: 14

Station Type Date Time Source
ESSP TAF 2018/01/01 02:31 UTC NOAA

TAF ESSP 010130Z 0102/0206 16002KT 9999 BKN004 PROB40 0102/0106 4000 BR SCT004

Example: see airport list